sensor_id;sensor_type;location;lat;lon;timestamp;pressure;altitude;pressure_sealevel;temperature;humidity
79729;BME280;69218;52.132;5.418;2023-09-19T00:01:40;100805.03;;;14.65;91.69
79729;BME280;69218;52.132;5.418;2023-09-19T00:04:08;100823.50;;;14.65;91.63
79729;BME280;69218;52.132;5.418;2023-09-19T00:06:37;100816.75;;;14.62;91.66
79729;BME280;69218;52.132;5.418;2023-09-19T00:09:03;100824.41;;;14.55;91.88
79729;BME280;69218;52.132;5.418;2023-09-19T00:11:30;100829.69;;;14.55;92.61
79729;BME280;69218;52.132;5.418;2023-09-19T00:13:57;100838.59;;;14.54;92.42
79729;BME280;69218;52.132;5.418;2023-09-19T00:16:31;100843.19;;;14.52;92.42
79729;BME280;69218;52.132;5.418;2023-09-19T00:18:59;100835.41;;;14.51;91.95
79729;BME280;69218;52.132;5.418;2023-09-19T00:21:32;100846.50;;;14.54;92.35
79729;BME280;69218;52.132;5.418;2023-09-19T00:23:58;100837.91;;;14.52;92.04
79729;BME280;69218;52.132;5.418;2023-09-19T00:26:25;100831.94;;;14.50;91.95
79729;BME280;69218;52.132;5.418;2023-09-19T00:28:54;100834.72;;;14.49;92.40
79729;BME280;69218;52.132;5.418;2023-09-19T00:31:23;100841.97;;;14.47;92.23
79729;BME280;69218;52.132;5.418;2023-09-19T00:33:49;100843.63;;;14.48;92.24
79729;BME280;69218;52.132;5.418;2023-09-19T00:36:16;100854.03;;;14.49;92.20
79729;BME280;69218;52.132;5.418;2023-09-19T00:38:42;100849.72;;;14.48;92.10
79729;BME280;69218;52.132;5.418;2023-09-19T00:41:10;100856.81;;;14.48;92.42
79729;BME280;69218;52.132;5.418;2023-09-19T00:43:39;100850.72;;;14.47;92.78
79729;BME280;69218;52.132;5.418;2023-09-19T00:46:07;100847.25;;;14.47;92.82
79729;BME280;69218;52.132;5.418;2023-09-19T00:48:40;100853.34;;;14.47;92.80
79729;BME280;69218;52.132;5.418;2023-09-19T00:51:10;100850.13;;;14.44;92.96
79729;BME280;69218;52.132;5.418;2023-09-19T00:53:38;100855.72;;;14.41;93.38
79729;BME280;69218;52.132;5.418;2023-09-19T00:56:05;100854.72;;;14.42;93.46
79729;BME280;69218;52.132;5.418;2023-09-19T00:58:36;100854.56;;;14.43;93.33
79729;BME280;69218;52.132;5.418;2023-09-19T01:01:04;100856.13;;;14.46;93.24
79729;BME280;69218;52.132;5.418;2023-09-19T01:03:33;100858.03;;;14.44;93.18
79729;BME280;69218;52.132;5.418;2023-09-19T01:06:00;100862.63;;;14.42;93.54
79729;BME280;69218;52.132;5.418;2023-09-19T01:08:27;100867.75;;;14.43;93.63
79729;BME280;69218;52.132;5.418;2023-09-19T01:11:09;100865.81;;;14.45;94.02
79729;BME280;69218;52.132;5.418;2023-09-19T01:13:48;100870.28;;;14.45;93.98
79729;BME280;69218;52.132;5.418;2023-09-19T01:19:06;100864.44;;;14.41;93.94
79729;BME280;69218;52.132;5.418;2023-09-19T01:30:17;100873.75;;;14.36;94.16
79729;BME280;69218;52.132;5.418;2023-09-19T01:32:52;100870.97;;;14.37;93.80
79729;BME280;69218;52.132;5.418;2023-09-19T01:35:19;100870.97;;;14.37;93.67
79729;BME280;69218;52.132;5.418;2023-09-19T01:37:45;100873.63;;;14.37;94.17
79729;BME280;69218;52.132;5.418;2023-09-19T01:40:14;100864.34;;;14.33;94.38
79729;BME280;69218;52.132;5.418;2023-09-19T01:51:00;100871.44;;;14.33;94.54
79729;BME280;69218;52.132;5.418;2023-09-19T01:53:33;100880.31;;;14.32;94.57
79729;BME280;69218;52.132;5.418;2023-09-19T01:56:08;100881.16;;;14.32;95.21
79729;BME280;69218;52.132;5.418;2023-09-19T01:58:53;100880.44;;;14.30;95.42
79729;BME280;69218;52.132;5.418;2023-09-19T02:01:24;100884.06;;;14.29;95.34
79729;BME280;69218;52.132;5.418;2023-09-19T02:03:53;100878.13;;;14.27;95.32
79729;BME280;69218;52.132;5.418;2023-09-19T02:06:20;100885.34;;;14.25;95.55
79729;BME280;69218;52.132;5.418;2023-09-19T02:08:48;100880.19;;;14.23;95.70
79729;BME280;69218;52.132;5.418;2023-09-19T02:11:15;100880.34;;;14.22;95.40
79729;BME280;69218;52.132;5.418;2023-09-19T02:13:42;100874.25;;;14.21;95.00
79729;BME280;69218;52.132;5.418;2023-09-19T02:16:09;100876.88;;;14.21;95.15
79729;BME280;69218;52.132;5.418;2023-09-19T02:18:38;100875.22;;;14.20;95.01
79729;BME280;69218;52.132;5.418;2023-09-19T02:21:05;100866.50;;;14.20;94.81
79729;BME280;69218;52.132;5.418;2023-09-19T02:23:33;100872.88;;;14.17;95.27
79729;BME280;69218;52.132;5.418;2023-09-19T02:26:00;100874.81;;;14.15;95.21
79729;BME280;69218;52.132;5.418;2023-09-19T02:28:27;100881.91;;;14.15;95.17
79729;BME280;69218;52.132;5.418;2023-09-19T02:30:59;100889.81;;;14.15;95.14
79729;BME280;69218;52.132;5.418;2023-09-19T02:33:25;100887.16;;;14.15;94.90
79729;BME280;69218;52.132;5.418;2023-09-19T02:35:58;100881.22;;;14.13;94.85
79729;BME280;69218;52.132;5.418;2023-09-19T02:38:25;100892.75;;;14.12;94.66
79729;BME280;69218;52.132;5.418;2023-09-19T02:40:52;100892.06;;;14.10;94.45
79729;BME280;69218;52.132;5.418;2023-09-19T02:43:19;100892.34;;;14.07;93.69
79729;BME280;69218;52.132;5.418;2023-09-19T02:45:46;100886.38;;;14.05;93.50
79729;BME280;69218;52.132;5.418;2023-09-19T02:48:22;100889.19;;;14.03;93.46
79729;BME280;69218;52.132;5.418;2023-09-19T02:50:49;100884.47;;;13.97;93.48
79729;BME280;69218;52.132;5.418;2023-09-19T02:53:16;100882.94;;;13.94;93.48
79729;BME280;69218;52.132;5.418;2023-09-19T02:55:42;100891.00;;;13.93;93.08
79729;BME280;69218;52.132;5.418;2023-09-19T02:58:09;100891.28;;;13.90;93.06
79729;BME280;69218;52.132;5.418;2023-09-19T03:00:38;100898.63;;;13.86;93.10
79729;BME280;69218;52.132;5.418;2023-09-19T03:03:04;100897.28;;;13.82;93.15
79729;BME280;69218;52.132;5.418;2023-09-19T03:05:32;100890.47;;;13.80;92.76
79729;BME280;69218;52.132;5.418;2023-09-19T03:08:06;100895.34;;;13.74;92.68
79729;BME280;69218;52.132;5.418;2023-09-19T03:10:33;100890.34;;;13.71;92.48
79729;BME280;69218;52.132;5.418;2023-09-19T03:12:59;100881.06;;;13.67;92.42
79729;BME280;69218;52.132;5.418;2023-09-19T03:15:29;100887.16;;;13.68;92.36
79729;BME280;69218;52.132;5.418;2023-09-19T03:17:56;100884.94;;;13.63;92.08
79729;BME280;69218;52.132;5.418;2023-09-19T03:20:24;100885.25;;;13.60;91.88
79729;BME280;69218;52.132;5.418;2023-09-19T03:22:53;100895.22;;;13.57;91.80
79729;BME280;69218;52.132;5.418;2023-09-19T03:25:20;100886.06;;;13.51;91.88
79729;BME280;69218;52.132;5.418;2023-09-19T03:27:47;100888.44;;;13.44;91.96
79729;BME280;69218;52.132;5.418;2023-09-19T03:30:14;100886.09;;;13.41;91.59
79729;BME280;69218;52.132;5.418;2023-09-19T03:32:47;100894.25;;;13.38;91.50
79729;BME280;69218;52.132;5.418;2023-09-19T03:35:17;100900.47;;;13.37;91.71
79729;BME280;69218;52.132;5.418;2023-09-19T03:37:44;100898.81;;;13.36;91.46
79729;BME280;69218;52.132;5.418;2023-09-19T03:40:11;100896.47;;;13.33;91.65
79729;BME280;69218;52.132;5.418;2023-09-19T03:42:39;100884.56;;;13.29;91.61
79729;BME280;69218;52.132;5.418;2023-09-19T03:45:07;100876.13;;;13.26;91.30
79729;BME280;69218;52.132;5.418;2023-09-19T03:47:40;100878.44;;;13.19;91.02
79729;BME280;69218;52.132;5.418;2023-09-19T03:50:08;100881.31;;;13.16;91.46
79729;BME280;69218;52.132;5.418;2023-09-19T03:52:37;100876.34;;;13.13;91.17
79729;BME280;69218;52.132;5.418;2023-09-19T03:55:04;100888.94;;;13.09;90.91
79729;BME280;69218;52.132;5.418;2023-09-19T03:57:30;100889.91;;;13.08;90.68
79729;BME280;69218;52.132;5.418;2023-09-19T03:59:57;100896.28;;;13.06;90.74
79729;BME280;69218;52.132;5.418;2023-09-19T04:02:24;100904.44;;;13.03;91.02
79729;BME280;69218;52.132;5.418;2023-09-19T04:04:51;100900.28;;;13.00;90.27
79729;BME280;69218;52.132;5.418;2023-09-19T04:07:18;100910.97;;;12.99;90.49
79729;BME280;69218;52.132;5.418;2023-09-19T04:09:46;100908.59;;;12.96;90.52
79729;BME280;69218;52.132;5.418;2023-09-19T04:12:12;100910.69;;;12.92;90.74
79729;BME280;69218;52.132;5.418;2023-09-19T04:14:41;100923.25;;;12.88;90.77
79729;BME280;69218;52.132;5.418;2023-09-19T04:17:07;100932.41;;;12.84;90.90
79729;BME280;69218;52.132;5.418;2023-09-19T04:19:37;100927.38;;;12.81;90.68
79729;BME280;69218;52.132;5.418;2023-09-19T04:22:03;100929.06;;;12.82;90.43
79729;BME280;69218;52.132;5.418;2023-09-19T04:24:30;100930.03;;;12.81;90.44
79729;BME280;69218;52.132;5.418;2023-09-19T04:26:58;100941.50;;;12.80;90.36
79729;BME280;69218;52.132;5.418;2023-09-19T04:29:28;100943.31;;;12.80;89.60
79729;BME280;69218;52.132;5.418;2023-09-19T04:31:56;100946.22;;;12.77;89.80
79729;BME280;69218;52.132;5.418;2023-09-19T04:34:25;100942.88;;;12.75;89.85
79729;BME280;69218;52.132;5.418;2023-09-19T04:36:52;100946.47;;;12.74;89.79
79729;BME280;69218;52.132;5.418;2023-09-19T04:39:19;100955.47;;;12.71;89.71
79729;BME280;69218;52.132;5.418;2023-09-19T04:41:47;100966.97;;;12.70;89.80
79729;BME280;69218;52.132;5.418;2023-09-19T04:44:14;100967.94;;;12.69;89.81
79729;BME280;69218;52.132;5.418;2023-09-19T04:46:42;100964.59;;;12.67;89.57
79729;BME280;69218;52.132;5.418;2023-09-19T04:49:09;100962.78;;;12.68;89.37
79729;BME280;69218;52.132;5.418;2023-09-19T04:51:35;100963.75;;;12.67;89.83
79729;BME280;69218;52.132;5.418;2023-09-19T04:54:06;100958.63;;;12.65;88.98
79729;BME280;69218;52.132;5.418;2023-09-19T04:56:33;100957.94;;;12.63;89.25
79729;BME280;69218;52.132;5.418;2023-09-19T04:59:00;100961.41;;;12.63;89.29
79729;BME280;69218;52.132;5.418;2023-09-19T05:01:27;100952.94;;;12.60;89.22
79729;BME280;69218;52.132;5.418;2023-09-19T05:03:54;100961.53;;;12.62;89.26
79729;BME280;69218;52.132;5.418;2023-09-19T05:06:22;100959.75;;;12.62;89.14
79729;BME280;69218;52.132;5.418;2023-09-19T05:08:49;100962.63;;;12.59;89.42
79729;BME280;69218;52.132;5.418;2023-09-19T05:11:18;100968.72;;;12.60;89.33
79729;BME280;69218;52.132;5.418;2023-09-19T05:13:49;100970.38;;;12.61;89.58
79729;BME280;69218;52.132;5.418;2023-09-19T05:16:20;100967.75;;;12.61;88.95
79729;BME280;69218;52.132;5.418;2023-09-19T05:18:46;100972.06;;;12.62;88.97
79729;BME280;69218;52.132;5.418;2023-09-19T05:21:13;100965.84;;;12.63;89.32
79729;BME280;69218;52.132;5.418;2023-09-19T05:23:39;100970.25;;;12.62;89.33
79729;BME280;69218;52.132;5.418;2023-09-19T05:26:06;100962.38;;;12.62;89.28
79729;BME280;69218;52.132;5.418;2023-09-19T05:28:33;100971.22;;;12.61;89.16
79729;BME280;69218;52.132;5.418;2023-09-19T05:31:01;100975.53;;;12.62;89.18
79729;BME280;69218;52.132;5.418;2023-09-19T05:33:34;100967.34;;;12.65;89.23
79729;BME280;69218;52.132;5.418;2023-09-19T05:36:01;100968.19;;;12.66;89.41
79729;BME280;69218;52.132;5.418;2023-09-19T05:38:29;100957.53;;;12.68;89.54
79729;BME280;69218;52.132;5.418;2023-09-19T05:40:56;100955.88;;;12.67;89.46
79729;BME280;69218;52.132;5.418;2023-09-19T05:43:23;100958.09;;;12.71;89.56
79729;BME280;69218;52.132;5.418;2023-09-19T05:45:49;100958.94;;;12.72;89.33
79729;BME280;69218;52.132;5.418;2023-09-19T05:48:18;100958.66;;;12.75;89.72
79729;BME280;69218;52.132;5.418;2023-09-19T05:50:47;100973.38;;;12.77;89.36
79729;BME280;69218;52.132;5.418;2023-09-19T05:53:15;100965.47;;;12.77;89.47
79729;BME280;69218;52.132;5.418;2023-09-19T05:55:42;100969.63;;;12.80;89.43
79729;BME280;69218;52.132;5.418;2023-09-19T05:58:08;100975.19;;;12.86;89.72
79729;BME280;69218;52.132;5.418;2023-09-19T06:00:36;100979.22;;;12.90;89.43
79729;BME280;69218;52.132;5.418;2023-09-19T06:03:05;100980.59;;;12.95;89.45
79729;BME280;69218;52.132;5.418;2023-09-19T06:05:32;100976.03;;;12.97;89.29
79729;BME280;69218;52.132;5.418;2023-09-19T06:07:58;100978.56;;;12.98;89.02
79729;BME280;69218;52.132;5.418;2023-09-19T06:10:34;100991.44;;;13.01;89.19
79729;BME280;69218;52.132;5.418;2023-09-19T06:13:04;100991.28;;;13.03;89.52
79729;BME280;69218;52.132;5.418;2023-09-19T06:15:32;101004.19;;;13.06;89.26
79729;BME280;69218;52.132;5.418;2023-09-19T06:18:00;100995.34;;;13.07;89.32
79729;BME280;69218;52.132;5.418;2023-09-19T06:20:28;100999.75;;;13.06;89.11
79729;BME280;69218;52.132;5.418;2023-09-19T06:22:54;101001.28;;;13.09;89.30
79729;BME280;69218;52.132;5.418;2023-09-19T06:25:21;100999.47;;;13.09;89.52
79729;BME280;69218;52.132;5.418;2023-09-19T06:27:52;101008.78;;;13.13;89.15
79729;BME280;69218;52.132;5.418;2023-09-19T06:30:42;101003.13;;;13.18;88.83
79729;BME280;69218;52.132;5.418;2023-09-19T06:33:18;101001.91;;;13.22;89.06
79729;BME280;69218;52.132;5.418;2023-09-19T06:35:54;100997.06;;;13.27;88.76
79729;BME280;69218;52.132;5.418;2023-09-19T06:38:28;100986.13;;;13.32;88.32
79729;BME280;69218;52.132;5.418;2023-09-19T06:40:55;100989.31;;;13.35;88.93
79729;BME280;69218;52.132;5.418;2023-09-19T06:43:22;100991.56;;;13.40;88.70
79729;BME280;69218;52.132;5.418;2023-09-19T06:45:48;100987.81;;;13.42;88.57
79729;BME280;69218;52.132;5.418;2023-09-19T06:48:16;100980.34;;;13.48;88.65
79729;BME280;69218;52.132;5.418;2023-09-19T06:50:43;100984.22;;;13.53;88.54
79729;BME280;69218;52.132;5.418;2023-09-19T06:53:11;100985.34;;;13.60;88.37
79729;BME280;69218;52.132;5.418;2023-09-19T06:55:38;100981.59;;;13.63;88.52
79729;BME280;69218;52.132;5.418;2023-09-19T06:58:05;100991.72;;;13.67;88.66
79729;BME280;69218;52.132;5.418;2023-09-19T07:00:32;100989.47;;;13.72;88.37
79729;BME280;69218;52.132;5.418;2023-09-19T07:03:05;100985.75;;;13.75;88.21
79729;BME280;69218;52.132;5.418;2023-09-19T07:05:35;100985.31;;;13.80;87.82
79729;BME280;69218;52.132;5.418;2023-09-19T07:08:07;100989.22;;;13.85;88.74
79729;BME280;69218;52.132;5.418;2023-09-19T07:10:34;100983.38;;;13.91;88.33
79729;BME280;69218;52.132;5.418;2023-09-19T07:13:05;100982.81;;;13.97;88.05
79729;BME280;69218;52.132;5.418;2023-09-19T07:15:35;100985.72;;;14.04;88.15
79729;BME280;69218;52.132;5.418;2023-09-19T07:18:06;100993.06;;;14.10;88.02
79729;BME280;69218;52.132;5.418;2023-09-19T07:20:33;100986.25;;;14.17;88.02
79729;BME280;69218;52.132;5.418;2023-09-19T07:23:01;100994.56;;;14.22;87.64
79729;BME280;69218;52.132;5.418;2023-09-19T07:25:29;100997.31;;;14.30;88.53
79729;BME280;69218;52.132;5.418;2023-09-19T07:27:57;101001.19;;;14.36;87.96
79729;BME280;69218;52.132;5.418;2023-09-19T07:30:28;101006.03;;;14.41;87.82
79729;BME280;69218;52.132;5.418;2023-09-19T07:32:55;101005.50;;;14.47;86.97
79729;BME280;69218;52.132;5.418;2023-09-19T07:35:22;101014.94;;;14.49;86.57
79729;BME280;69218;52.132;5.418;2023-09-19T07:37:49;101019.50;;;14.57;86.84
79729;BME280;69218;52.132;5.418;2023-09-19T07:40:18;101016.84;;;14.67;86.73
79729;BME280;69218;52.132;5.418;2023-09-19T07:42:47;101017.91;;;14.74;86.22
79729;BME280;69218;52.132;5.418;2023-09-19T07:45:14;101018.03;;;14.82;85.75
79729;BME280;69218;52.132;5.418;2023-09-19T07:47:47;101018.81;;;14.92;86.40
79729;BME280;69218;52.132;5.418;2023-09-19T07:50:15;101024.41;;;15.07;86.41
79729;BME280;69218;52.132;5.418;2023-09-19T07:52:43;101019.53;;;15.12;85.28
79729;BME280;69218;52.132;5.418;2023-09-19T07:55:09;101015.31;;;15.19;84.79
79729;BME280;69218;52.132;5.418;2023-09-19T07:57:38;101017.16;;;15.19;83.72
79729;BME280;69218;52.132;5.418;2023-09-19T08:00:04;101021.28;;;15.21;83.65
79729;BME280;69218;52.132;5.418;2023-09-19T08:02:36;101012.94;;;15.26;84.28
79729;BME280;69218;52.132;5.418;2023-09-19T08:05:07;101022.06;;;15.31;84.19
79729;BME280;69218;52.132;5.418;2023-09-19T08:07:41;101022.16;;;15.39;83.77
79729;BME280;69218;52.132;5.418;2023-09-19T08:10:09;101020.28;;;15.50;83.20
79729;BME280;69218;52.132;5.418;2023-09-19T08:12:40;101015.81;;;15.50;82.07
79729;BME280;69218;52.132;5.418;2023-09-19T08:15:18;101017.75;;;15.58;83.29
79729;BME280;69218;52.132;5.418;2023-09-19T08:17:48;101026.59;;;15.67;82.61
79729;BME280;69218;52.132;5.418;2023-09-19T08:20:15;101020.47;;;15.66;82.45
79729;BME280;69218;52.132;5.418;2023-09-19T08:22:50;101012.09;;;15.71;82.44
79729;BME280;69218;52.132;5.418;2023-09-19T08:25:23;101016.47;;;15.80;82.52
79729;BME280;69218;52.132;5.418;2023-09-19T08:27:51;101019.34;;;15.86;81.24
79729;BME280;69218;52.132;5.418;2023-09-19T08:30:20;101017.22;;;15.90;81.92
79729;BME280;69218;52.132;5.418;2023-09-19T08:32:51;101009.34;;;15.98;81.30
79729;BME280;69218;52.132;5.418;2023-09-19T08:35:23;101005.72;;;15.99;80.89
79729;BME280;69218;52.132;5.418;2023-09-19T08:37:50;101000.34;;;16.09;81.99
79729;BME280;69218;52.132;5.418;2023-09-19T08:40:18;101010.00;;;16.18;81.81
79729;BME280;69218;52.132;5.418;2023-09-19T08:42:53;101010.53;;;16.22;80.75
79729;BME280;69218;52.132;5.418;2023-09-19T08:45:24;101007.72;;;16.23;81.12
79729;BME280;69218;52.132;5.418;2023-09-19T08:50:52;101000.56;;;16.41;80.32
79729;BME280;69218;52.132;5.418;2023-09-19T08:53:49;101010.69;;;16.46;80.13
79729;BME280;69218;52.132;5.418;2023-09-19T08:56:13;100995.34;;;16.50;80.01
79729;BME280;69218;52.132;5.418;2023-09-19T08:58:53;101000.34;;;16.61;79.19
79729;BME280;69218;52.132;5.418;2023-09-19T09:01:21;101004.72;;;16.70;78.15
79729;BME280;69218;52.132;5.418;2023-09-19T09:03:52;101006.94;;;16.83;78.04
79729;BME280;69218;52.132;5.418;2023-09-19T09:06:23;100991.97;;;16.99;78.41
79729;BME280;69218;52.132;5.418;2023-09-19T09:08:51;100993.28;;;17.12;78.29
79729;BME280;69218;52.132;5.418;2023-09-19T09:11:19;101010.91;;;17.21;78.05
79729;BME280;69218;52.132;5.418;2023-09-19T09:13:46;101005.91;;;17.18;77.06
79729;BME280;69218;52.132;5.418;2023-09-19T09:16:14;101001.94;;;17.14;75.31
79729;BME280;69218;52.132;5.418;2023-09-19T09:18:46;101004.59;;;17.22;77.50
79729;BME280;69218;52.132;5.418;2023-09-19T09:21:13;101003.78;;;17.21;75.92
79729;BME280;69218;52.132;5.418;2023-09-19T09:23:41;100993.53;;;17.35;75.85
79729;BME280;69218;52.132;5.418;2023-09-19T09:26:07;100996.38;;;17.41;75.55
79729;BME280;69218;52.132;5.418;2023-09-19T09:28:44;100999.34;;;17.54;75.76
79729;BME280;69218;52.132;5.418;2023-09-19T09:31:22;100989.91;;;17.52;75.71
79729;BME280;69218;52.132;5.418;2023-09-19T09:33:53;100985.78;;;17.57;75.55
79729;BME280;69218;52.132;5.418;2023-09-19T09:36:39;100981.47;;;17.65;75.58
79729;BME280;69218;52.132;5.418;2023-09-19T09:39:07;100980.84;;;17.79;74.30
79729;BME280;69218;52.132;5.418;2023-09-19T09:41:51;100978.19;;;17.87;73.73
79729;BME280;69218;52.132;5.418;2023-09-19T09:44:18;100981.19;;;18.00;71.97
79729;BME280;69218;52.132;5.418;2023-09-19T09:46:47;100972.88;;;18.03;72.43
79729;BME280;69218;52.132;5.418;2023-09-19T09:49:23;100966.38;;;18.22;73.29
79729;BME280;69218;52.132;5.418;2023-09-19T09:52:06;100971.31;;;18.42;72.93
79729;BME280;69218;52.132;5.418;2023-09-19T09:54:37;100982.78;;;18.42;71.10
79729;BME280;69218;52.132;5.418;2023-09-19T09:57:09;100965.91;;;18.27;71.46
79729;BME280;69218;52.132;5.418;2023-09-19T09:59:50;100965.72;;;18.28;71.74
79729;BME280;69218;52.132;5.418;2023-09-19T10:02:19;100962.53;;;18.41;70.86
79729;BME280;69218;52.132;5.418;2023-09-19T10:04:52;100978.47;;;18.41;69.71
79729;BME280;69218;52.132;5.418;2023-09-19T10:07:40;100984.59;;;18.42;70.82
79729;BME280;69218;52.132;5.418;2023-09-19T10:12:58;100979.59;;;18.55;70.14
79729;BME280;69218;52.132;5.418;2023-09-19T10:15:32;100976.94;;;18.55;72.15
79729;BME280;69218;52.132;5.418;2023-09-19T10:18:04;100973.28;;;18.56;72.00
79729;BME280;69218;52.132;5.418;2023-09-19T10:20:32;100984.06;;;18.46;69.80
79729;BME280;69218;52.132;5.418;2023-09-19T10:23:09;100968.03;;;18.31;71.19
79729;BME280;69218;52.132;5.418;2023-09-19T10:25:40;100971.19;;;18.35;71.18
79729;BME280;69218;52.132;5.418;2023-09-19T10:28:09;100962.38;;;18.43;70.18
79729;BME280;69218;52.132;5.418;2023-09-19T10:30:46;100961.81;;;18.63;69.03
79729;BME280;69218;52.132;5.418;2023-09-19T10:33:14;100962.13;;;18.77;69.93
79729;BME280;69218;52.132;5.418;2023-09-19T10:35:49;100961.44;;;18.83;69.98
79729;BME280;69218;52.132;5.418;2023-09-19T10:38:26;100956.84;;;19.00;69.57
79729;BME280;69218;52.132;5.418;2023-09-19T10:40:56;100940.78;;;19.24;69.28
79729;BME280;69218;52.132;5.418;2023-09-19T10:43:32;100941.81;;;19.38;66.62
79729;BME280;69218;52.132;5.418;2023-09-19T10:46:07;100941.41;;;19.26;68.30
79729;BME280;69218;52.132;5.418;2023-09-19T10:48:38;100937.50;;;19.14;67.28
79729;BME280;69218;52.132;5.418;2023-09-19T10:51:10;100943.34;;;19.09;68.45
79729;BME280;69218;52.132;5.418;2023-09-19T10:53:55;100932.00;;;19.15;69.77
79729;BME280;69218;52.132;5.418;2023-09-19T10:56:32;100937.50;;;19.14;69.32
79729;BME280;69218;52.132;5.418;2023-09-19T10:59:14;100927.69;;;19.37;69.55
79729;BME280;69218;52.132;5.418;2023-09-19T11:04:32;100923.59;;;19.58;67.02
79729;BME280;69218;52.132;5.418;2023-09-19T11:07:07;100912.53;;;19.69;66.65
79729;BME280;69218;52.132;5.418;2023-09-19T11:09:53;100911.00;;;19.89;66.87
79729;BME280;69218;52.132;5.418;2023-09-19T11:14:58;100915.19;;;19.69;66.20
79729;BME280;69218;52.132;5.418;2023-09-19T11:30:36;100908.25;;;19.83;63.87
79729;BME280;69218;52.132;5.418;2023-09-19T11:33:21;100903.25;;;19.65;66.05
79729;BME280;69218;52.132;5.418;2023-09-19T11:36:16;100902.88;;;19.45;65.53
79729;BME280;69218;52.132;5.418;2023-09-19T11:46:32;100888.97;;;19.20;64.98
79729;BME280;69218;52.132;5.418;2023-09-19T11:49:06;100883.94;;;19.25;65.73
79729;BME280;69218;52.132;5.418;2023-09-19T11:51:40;100888.47;;;19.39;65.02
79729;BME280;69218;52.132;5.418;2023-09-19T11:54:15;100893.97;;;19.61;65.37
79729;BME280;69218;52.132;5.418;2023-09-19T11:56:45;100877.06;;;19.54;64.38
79729;BME280;69218;52.132;5.418;2023-09-19T11:59:38;100884.75;;;19.48;64.90
79729;BME280;69218;52.132;5.418;2023-09-19T12:02:06;100875.66;;;19.43;64.32
79729;BME280;69218;52.132;5.418;2023-09-19T12:04:39;100892.97;;;19.39;64.41
79729;BME280;69218;52.132;5.418;2023-09-19T12:07:12;100904.31;;;19.33;65.69
79729;BME280;69218;52.132;5.418;2023-09-19T12:09:44;100900.34;;;19.29;64.74
79729;BME280;69218;52.132;5.418;2023-09-19T12:12:25;100913.00;;;19.27;64.38
79729;BME280;69218;52.132;5.418;2023-09-19T12:15:02;100900.47;;;19.35;65.32
79729;BME280;69218;52.132;5.418;2023-09-19T12:17:36;100906.38;;;19.45;65.19
79729;BME280;69218;52.132;5.418;2023-09-19T12:20:03;100902.03;;;19.44;65.81
79729;BME280;69218;52.132;5.418;2023-09-19T12:22:43;100880.84;;;19.36;65.35
79729;BME280;69218;52.132;5.418;2023-09-19T12:25:10;100881.53;;;19.38;65.03
79729;BME280;69218;52.132;5.418;2023-09-19T12:27:57;100898.06;;;19.26;65.45
79729;BME280;69218;52.132;5.418;2023-09-19T12:30:28;100881.34;;;19.17;64.38
79729;BME280;69218;52.132;5.418;2023-09-19T12:32:59;100897.31;;;19.17;65.19
79729;BME280;69218;52.132;5.418;2023-09-19T12:35:27;100896.94;;;19.20;65.81
79729;BME280;69218;52.132;5.418;2023-09-19T12:37:55;100894.56;;;19.25;65.74
79729;BME280;69218;52.132;5.418;2023-09-19T12:40:24;100887.25;;;19.27;65.29
79729;BME280;69218;52.132;5.418;2023-09-19T12:42:56;100881.56;;;19.30;66.16
79729;BME280;69218;52.132;5.418;2023-09-19T12:45:25;100885.59;;;19.26;66.43
79729;BME280;69218;52.132;5.418;2023-09-19T12:48:20;100884.00;;;19.17;66.50
79729;BME280;69218;52.132;5.418;2023-09-19T12:51:08;100901.03;;;19.00;66.39
79729;BME280;69218;52.132;5.418;2023-09-19T12:53:44;100897.94;;;18.96;67.64
79729;BME280;69218;52.132;5.418;2023-09-19T12:56:13;100901.94;;;18.92;67.34
79729;BME280;69218;52.132;5.418;2023-09-19T13:01:27;100898.56;;;18.98;67.67
79729;BME280;69218;52.132;5.418;2023-09-19T13:04:17;100898.63;;;19.13;66.97
79729;BME280;69218;52.132;5.418;2023-09-19T13:06:53;100889.59;;;19.22;67.59
79729;BME280;69218;52.132;5.418;2023-09-19T13:09:22;100883.00;;;19.18;67.04
79729;BME280;69218;52.132;5.418;2023-09-19T13:12:00;100900.47;;;19.35;67.92
79729;BME280;69218;52.132;5.418;2023-09-19T13:14:29;100888.41;;;19.47;67.42
79729;BME280;69218;52.132;5.418;2023-09-19T13:17:07;100902.59;;;19.40;67.81
79729;BME280;69218;52.132;5.418;2023-09-19T13:19:44;100889.06;;;19.27;68.03
79729;BME280;69218;52.132;5.418;2023-09-19T13:22:44;100897.75;;;19.20;69.47
79729;BME280;69218;52.132;5.418;2023-09-19T13:25:16;100914.28;;;19.08;68.74
79729;BME280;69218;52.132;5.418;2023-09-19T13:27:51;100911.56;;;18.93;69.67
79729;BME280;69218;52.132;5.418;2023-09-19T13:30:20;100906.66;;;18.82;69.27
79729;BME280;69218;52.132;5.418;2023-09-19T13:32:47;100909.41;;;18.88;70.99
79729;BME280;69218;52.132;5.418;2023-09-19T13:35:19;100897.50;;;19.07;70.03
79729;BME280;69218;52.132;5.418;2023-09-19T13:37:47;100900.03;;;19.24;68.55
79729;BME280;69218;52.132;5.418;2023-09-19T13:40:18;100890.34;;;19.31;68.80
79729;BME280;69218;52.132;5.418;2023-09-19T13:42:45;100878.00;;;19.38;67.31
79729;BME280;69218;52.132;5.418;2023-09-19T13:45:14;100887.66;;;19.39;67.59
79729;BME280;69218;52.132;5.418;2023-09-19T13:47:43;100879.50;;;19.40;67.48
79729;BME280;69218;52.132;5.418;2023-09-19T13:50:10;100877.47;;;19.42;68.01
79729;BME280;69218;52.132;5.418;2023-09-19T13:52:37;100876.75;;;19.48;67.35
79729;BME280;69218;52.132;5.418;2023-09-19T13:55:05;100873.91;;;19.50;66.53
79729;BME280;69218;52.132;5.418;2023-09-19T13:57:33;100866.03;;;19.42;66.73
79729;BME280;69218;52.132;5.418;2023-09-19T14:00:00;100873.59;;;19.30;66.01
79729;BME280;69218;52.132;5.418;2023-09-19T14:02:26;100874.03;;;19.19;67.11